Time;durP1;ratioP1;P1;durP2;ratioP2;P2;SDS_P1;SDS_P2;PMS_P1;PMS_P2;Temp;Humidity;BMP_temperature;BMP_pressure;BME280_temperature;BME280_humidity;BME280_pressure;Samples;Min_cycle;Max_cycle;Signal;HPM_P1;HPM_P2
2023/05/29 00:00:47;;;;;;;;;;;;;;;;;;5068538;28;19938;-74
2023/05/29 00:03:14;;;;;;;;;;;;;;;;;;5068000;28;19956;-75
2023/05/29 00:05:41;;;;;;;;;;;;;;;;;;5064133;28;19924;-75
2023/05/29 00:08:08;;;;;;;;;;;;;;;;;;5064899;28;19950;-75
2023/05/29 00:10:37;;;;;;;;;;;;;;;;;;5063293;28;20664;-75
2023/05/29 00:13:04;;;;;;;;;;;;;;;;;;5063118;28;19931;-75
2023/05/29 00:15:31;;;;;;;;;;;;;;;;;;5061396;28;19933;-76
2023/05/29 00:17:58;;;;;;;;;;;;;;;;;;5067375;28;20290;-76
2023/05/29 00:20:25;;;;;;;;;;;;;;;;;;5063467;28;19933;-76
2023/05/29 00:22:52;;;;;;;;;;;;;;;;;;5068362;28;20406;-75
2023/05/29 00:25:19;;;;;;;;;;;;;;;;;;5063555;28;19959;-75
2023/05/29 00:27:46;;;;;;;;;;;;;;;;;;5062874;28;20011;-75
2023/05/29 00:30:13;;;;;;;;;;;;;;;;;;5064777;28;20007;-75
2023/05/29 00:32:40;;;;;;;;;;;;;;;;;;5069568;28;20008;-75
2023/05/29 00:35:07;;;;;;;;;;;;;;;;;;5072717;28;20386;-75
2023/05/29 00:37:34;;;;;;;;;;;;;;;;;;5063171;28;19970;-75
2023/05/29 00:40:01;;;;;;;;;;;;;;;;;;5068088;28;20004;-75
2023/05/29 00:42:28;;;;;;;;;;;;;;;;;;5064014;28;20011;-75
2023/05/29 00:44:55;;;;;;;;;;;;;;;;;;5069418;28;20023;-74
2023/05/29 00:47:22;;;;;;;;;;;;;;;;;;5063002;28;19930;-74
2023/05/29 00:49:51;;;;;;;;;;;;;;;;;;5067601;28;20374;-75
2023/05/29 00:52:18;;;;;;;;;;;;;;;;;;5063249;28;19924;-75
2023/05/29 00:54:45;;;;;;;;;;;;;;;;;;5060953;28;20012;-75
2023/05/29 00:57:12;;;;;;;;;;;;;;;;;;5060352;28;19924;-76
2023/05/29 00:59:39;;;;;;;;;;;;;;;;;;5061509;28;19925;-75
2023/05/29 01:02:05;;;;;;;;;;;;;;;;;;5059254;28;20011;-74
2023/05/29 01:04:33;;;;;;;;;;;;;;;;;;5062998;28;20027;-74
2023/05/29 01:07:00;;;;;;;;;;;;;;;;;;5067646;28;19948;-75
2023/05/29 01:09:29;;;;;;;;;;;;;;;;;;5069649;28;19931;-73
2023/05/29 01:11:56;;;;;;;;;;;;;;;;;;5062743;28;20331;-74
2023/05/29 01:14:23;;;;;;;;;;;;;;;;;;5068774;28;20347;-75
2023/05/29 01:16:50;;;;;;;;;;;;;;;;;;5068919;28;19970;-77
2023/05/29 01:19:17;;;;;;;;;;;;;;;;;;5079521;28;20015;-75
2023/05/29 01:21:44;;;;;;;;;;;;;;;;;;5068411;28;19925;-81
2023/05/29 01:24:11;;;;;;;;;;;;;;;;;;5074476;28;20015;-82
2023/05/29 01:26:39;;;;;;;;;;;;;;;;;;5068335;28;19928;-82
2023/05/29 01:29:05;;;;;;;;;;;;;;;;;;5072592;28;19929;-81
2023/05/29 01:31:32;;;;;;;;;;;;;;;;;;5085224;28;19924;-80
2023/05/29 01:34:00;;;;;;;;;;;;;;;;;;5071745;28;20768;-80
2023/05/29 01:36:27;;;;;;;;;;;;;;;;;;5073388;28;19970;-82
2023/05/29 01:38:54;;;;;;;;;;;;;;;;;;5073517;28;19963;-80
2023/05/29 01:41:21;;;;;;;;;;;;;;;;;;5070038;28;19956;-81
2023/05/29 01:43:48;;;;;;;;;;;;;;;;;;5069068;28;20030;-80
2023/05/29 01:46:15;;;;;;;;;;;;;;;;;;5070163;28;19924;-82
2023/05/29 01:48:42;;;;;;;;;;;;;;;;;;5075519;28;19936;-83
2023/05/29 01:51:10;;;;;;;;;;;;;;;;;;5074607;28;19924;-75
2023/05/29 01:53:37;;;;;;;;;;;;;;;;;;5068072;28;19978;-76
2023/05/29 01:56:04;;;;;;;;;;;;;;;;;;5065147;28;19928;-76
2023/05/29 01:58:31;;;;;;;;;;;;;;;;;;5067020;28;20019;-76
2023/05/29 02:00:58;;;;;;;;;;;;;;;;;;5072906;28;19928;-77
2023/05/29 02:03:28;;;;;;;;;;;;;;;;;;5069202;28;19943;-77
2023/05/29 02:05:55;;;;;;;;;;;;;;;;;;5068658;28;20018;-77
2023/05/29 02:08:22;;;;;;;;;;;;;;;;;;5067842;28;20340;-77
2023/05/29 02:10:49;;;;;;;;;;;;;;;;;;5067123;28;20318;-77
2023/05/29 02:13:16;;;;;;;;;;;;;;;;;;5068321;28;19998;-77
2023/05/29 02:15:43;;;;;;;;;;;;;;;;;;5073469;28;20391;-75
2023/05/29 02:18:11;;;;;;;;;;;;;;;;;;5070402;28;20023;-77
2023/05/29 02:20:38;;;;;;;;;;;;;;;;;;5076036;28;19963;-77
2023/05/29 02:23:05;;;;;;;;;;;;;;;;;;5080814;28;19925;-75
2023/05/29 02:25:32;;;;;;;;;;;;;;;;;;5075536;28;19978;-75
2023/05/29 02:27:59;;;;;;;;;;;;;;;;;;5071779;28;20015;-76
2023/05/29 02:30:26;;;;;;;;;;;;;;;;;;5073413;28;19976;-77
2023/05/29 02:32:53;;;;;;;;;;;;;;;;;;5072389;28;19924;-77
2023/05/29 02:35:22;;;;;;;;;;;;;;;;;;5069625;28;19963;-76
2023/05/29 02:37:49;;;;;;;;;;;;;;;;;;5078519;28;19967;-78
2023/05/29 02:40:16;;;;;;;;;;;;;;;;;;5084452;28;20316;-78
2023/05/29 02:42:43;;;;;;;;;;;;;;;;;;5073541;28;20484;-77
2023/05/29 02:45:10;;;;;;;;;;;;;;;;;;5083105;28;19989;-77
2023/05/29 02:47:37;;;;;;;;;;;;;;;;;;5071434;28;20015;-78
2023/05/29 02:50:04;;;;;;;;;;;;;;;;;;5076346;28;20007;-78
2023/05/29 02:52:31;;;;;;;;;;;;;;;;;;5078937;28;19967;-78
2023/05/29 02:54:58;;;;;;;;;;;;;;;;;;5073342;28;20007;-76
2023/05/29 02:57:25;;;;;;;;;;;;;;;;;;5077317;28;19931;-77
2023/05/29 02:59:52;;;;;;;;;;;;;;;;;;5072581;28;19932;-75
2023/05/29 03:02:19;;;;;;;;;;;;;;;;;;5072579;28;19994;-76
2023/05/29 03:04:46;;;;;;;;;;;;;;;;;;5077712;28;19924;-75
2023/05/29 03:07:13;;;;;;;;;;;;;;;;;;5072732;28;19924;-76
2023/05/29 03:09:40;;;;;;;;;;;;;;;;;;5080109;28;20374;-76
2023/05/29 03:12:07;;;;;;;;;;;;;;;;;;5068059;28;20014;-77
2023/05/29 03:14:36;;;;;;;;;;;;;;;;;;5072702;28;19925;-75
2023/05/29 03:17:03;;;;;;;;;;;;;;;;;;5071094;28;19968;-75
2023/05/29 03:19:30;;;;;;;;;;;;;;;;;;5072365;28;20390;-75
2023/05/29 03:21:57;;;;;;;;;;;;;;;;;;5072681;28;19924;-76
2023/05/29 03:24:24;;;;;;;;;;;;;;;;;;5073092;28;19924;-76
2023/05/29 03:26:51;;;;;;;;;;;;;;;;;;5071486;28;19924;-76
2023/05/29 03:29:18;;;;;;;;;;;;;;;;;;5071225;28;19971;-76
2023/05/29 03:31:45;;;;;;;;;;;;;;;;;;5072687;28;19931;-75
2023/05/29 03:34:13;;;;;;;;;;;;;;;;;;5071605;28;19931;-75
2023/05/29 03:36:40;;;;;;;;;;;;;;;;;;5072092;28;20329;-75
2023/05/29 03:39:07;;;;;;;;;;;;;;;;;;5074331;28;20028;-77
2023/05/29 03:41:34;;;;;;;;;;;;;;;;;;5072381;28;19955;-77
2023/05/29 03:44:01;;;;;;;;;;;;;;;;;;5069648;28;19925;-77
2023/05/29 03:46:28;;;;;;;;;;;;;;;;;;5069257;28;20007;-76
2023/05/29 03:48:55;;;;;;;;;;;;;;;;;;5085784;28;19931;-76
2023/05/29 03:51:22;;;;;;;;;;;;;;;;;;5082055;28;19993;-77
2023/05/29 03:53:49;;;;;;;;;;;;;;;;;;5073017;28;20011;-77
2023/05/29 03:56:16;;;;;;;;;;;;;;;;;;5081841;28;19923;-79
2023/05/29 03:58:43;;;;;;;;;;;;;;;;;;5077459;28;20474;-76
2023/05/29 04:01:10;;;;;;;;;;;;;;;;;;5069220;28;19924;-76
2023/05/29 04:03:37;;;;;;;;;;;;;;;;;;5072225;28;20454;-77
2023/05/29 04:06:04;;;;;;;;;;;;;;;;;;5070988;28;19925;-74
2023/05/29 04:08:31;;;;;;;;;;;;;;;;;;5070438;28;19931;-74
2023/05/29 04:10:58;;;;;;;;;;;;;;;;;;5070454;28;20422;-75
2023/05/29 04:13:25;;;;;;;;;;;;;;;;;;5086813;28;19924;-77
2023/05/29 04:15:53;;;;;;;;;;;;;;;;;;5072483;28;20011;-75
2023/05/29 04:18:20;;;;;;;;;;;;;;;;;;5072771;28;19925;-76
2023/05/29 04:20:47;;;;;;;;;;;;;;;;;;5068278;28;19932;-75
2023/05/29 04:23:14;;;;;;;;;;;;;;;;;;5072009;28;20012;-78
2023/05/29 04:25:41;;;;;;;;;;;;;;;;;;5082858;28;19931;-76
2023/05/29 04:28:10;;;;;;;;;;;;;;;;;;5091653;28;19971;-76
2023/05/29 04:30:38;;;;;;;;;;;;;;;;;;5072578;28;20337;-77
2023/05/29 04:33:05;;;;;;;;;;;;;;;;;;5069921;28;19924;-78
2023/05/29 04:35:32;;;;;;;;;;;;;;;;;;5074306;28;19939;-76
2023/05/29 04:37:59;;;;;;;;;;;;;;;;;;5068389;28;19979;-76
2023/05/29 04:40:27;;;;;;;;;;;;;;;;;;5072064;28;20015;-76
2023/05/29 04:42:54;;;;;;;;;;;;;;;;;;5070893;28;19924;-77
2023/05/29 04:45:22;;;;;;;;;;;;;;;;;;5071390;28;19967;-77
2023/05/29 04:47:49;;;;;;;;;;;;;;;;;;5060692;28;19925;-76
2023/05/29 04:50:18;;;;;;;;;;;;;;;;;;5072144;28;20279;-77
2023/05/29 04:52:45;;;;;;;;;;;;;;;;;;5072475;28;20023;-76
2023/05/29 04:55:12;;;;;;;;;;;;;;;;;;5072488;28;19932;-77
2023/05/29 04:57:38;;;;;;;;;;;;;;;;;;5060301;28;20011;-76
2023/05/29 05:00:06;;;;;;;;;;;;;;;;;;5072214;28;20387;-76
2023/05/29 05:02:33;;;;;;;;;;;;;;;;;;5073359;28;19928;-76
2023/05/29 05:05:01;;;;;;;;;;;;;;;;;;5071139;28;20026;-77
2023/05/29 05:07:28;;;;;;;;;;;;;;;;;;5070599;28;20024;-75
2023/05/29 05:09:55;;;;;;;;;;;;;;;;;;5067575;28;19931;-76
2023/05/29 05:12:22;;;;;;;;;;;;;;;;;;5083056;28;19924;-76
2023/05/29 05:14:49;;;;;;;;;;;;;;;;;;5076490;28;19966;-76
2023/05/29 05:17:16;;;;;;;;;;;;;;;;;;5079227;28;19924;-76
2023/05/29 05:19:43;;;;;;;;;;;;;;;;;;5073625;28;19947;-77
2023/05/29 05:22:10;;;;;;;;;;;;;;;;;;5067772;28;19964;-76
2023/05/29 05:24:37;;;;;;;;;;;;;;;;;;5084680;28;20006;-76
2023/05/29 05:27:05;;;;;;;;;;;;;;;;;;5076070;28;19963;-77
2023/05/29 05:29:31;;;;;;;;;;;;;;;;;;5070252;28;19955;-76
2023/05/29 05:31:58;;;;;;;;;;;;;;;;;;5072514;28;19924;-76
2023/05/29 05:34:26;;;;;;;;;;;;;;;;;;5086764;28;19924;-76
2023/05/29 05:36:52;;;;;;;;;;;;;;;;;;5072413;28;19924;-75
2023/05/29 05:39:20;;;;;;;;;;;;;;;;;;5078737;28;20474;-76
2023/05/29 05:41:46;;;;;;;;;;;;;;;;;;5068156;28;19924;-76
2023/05/29 05:44:13;;;;;;;;;;;;;;;;;;5075875;28;20019;-75
2023/05/29 05:46:41;;;;;;;;;;;;;;;;;;5068358;28;19968;-76
2023/05/29 05:49:08;;;;;;;;;;;;;;;;;;5069799;28;19924;-75
2023/05/29 05:51:35;;;;;;;;;;;;;;;;;;5071472;28;19968;-76
2023/05/29 05:54:02;;;;;;;;;;;;;;;;;;5076821;28;19925;-75
2023/05/29 05:56:29;;;;;;;;;;;;;;;;;;5068670;28;19925;-75
2023/05/29 05:58:56;;;;;;;;;;;;;;;;;;5071347;28;20357;-76
2023/05/29 06:01:23;;;;;;;;;;;;;;;;;;5073412;28;19924;-75
2023/05/29 06:03:50;;;;;;;;;;;;;;;;;;5062580;28;19928;-76
2023/05/29 06:06:17;;;;;;;;;;;;;;;;;;5073019;28;19925;-77
2023/05/29 06:08:45;;;;;;;;;;;;;;;;;;5074035;28;20517;-78
2023/05/29 06:11:12;;;;;;;;;;;;;;;;;;5068878;28;19931;-74
2023/05/29 06:13:39;;;;;;;;;;;;;;;;;;5074117;28;19924;-77
2023/05/29 06:16:06;;;;;;;;;;;;;;;;;;5074183;28;20667;-77
2023/05/29 06:18:33;;;;;;;;;;;;;;;;;;5073280;28;20016;-76
2023/05/29 06:21:01;;;;;;;;;;;;;;;;;;5072343;28;20015;-76
2023/05/29 06:23:28;;;;;;;;;;;;;;;;;;5073942;28;20394;-77
2023/05/29 06:25:55;;;;;;;;;;;;;;;;;;5080724;28;19930;-76
2023/05/29 06:28:22;;;;;;;;;;;;;;;;;;5070965;28;20342;-76
2023/05/29 06:30:49;;;;;;;;;;;;;;;;;;5073526;28;19999;-75
2023/05/29 06:33:16;;;;;;;;;;;;;;;;;;5086217;28;19924;-77
2023/05/29 06:35:42;;;;;;;;;;;;;;;;;;5073979;28;19970;-76
2023/05/29 06:38:09;;;;;;;;;;;;;;;;;;5073117;28;20002;-81
2023/05/29 06:40:36;;;;;;;;;;;;;;;;;;5074004;28;20027;-78
2023/05/29 06:43:03;;;;;;;;;;;;;;;;;;5079994;28;19924;-78
2023/05/29 06:45:30;;;;;;;;;;;;;;;;;;5072748;28;19925;-79
2023/05/29 06:47:57;;;;;;;;;;;;;;;;;;5076240;28;20011;-78
2023/05/29 06:50:24;;;;;;;;;;;;;;;;;;5087196;28;20008;-78
2023/05/29 06:52:52;;;;;;;;;;;;;;;;;;5080679;28;20377;-77
2023/05/29 06:55:18;;;;;;;;;;;;;;;;;;5079393;28;20378;-79
2023/05/29 06:57:46;;;;;;;;;;;;;;;;;;5068693;28;20023;-78
2023/05/29 07:00:13;;;;;;;;;;;;;;;;;;5082688;28;19955;-79
2023/05/29 07:02:40;;;;;;;;;;;;;;;;;;5069789;28;19955;-78
2023/05/29 07:05:07;;;;;;;;;;;;;;;;;;5075485;28;19925;-79
2023/05/29 07:07:34;;;;;;;;;;;;;;;;;;5069062;28;19924;-78
2023/05/29 07:10:01;;;;;;;;;;;;;;;;;;5084486;28;20051;-78
2023/05/29 07:12:28;;;;;;;;;;;;;;;;;;5069307;28;20014;-78
2023/05/29 07:14:55;;;;;;;;;;;;;;;;;;5067389;28;20028;-78
2023/05/29 07:17:22;;;;;;;;;;;;;;;;;;5071867;28;19932;-78
2023/05/29 07:19:49;;;;;;;;;;;;;;;;;;5065587;28;20378;-80
2023/05/29 07:22:16;;;;;;;;;;;;;;;;;;5067800;28;19924;-80
2023/05/29 07:24:43;;;;;;;;;;;;;;;;;;5065402;28;20023;-79
2023/05/29 07:27:10;;;;;;;;;;;;;;;;;;5058487;28;19924;-79
2023/05/29 07:29:37;;;;;;;;;;;;;;;;;;5053237;28;19947;-78
2023/05/29 07:32:04;;;;;;;;;;;;;;;;;;5074179;28;19924;-80
2023/05/29 07:34:31;;;;;;;;;;;;;;;;;;5072778;28;19964;-79
2023/05/29 07:36:58;;;;;;;;;;;;;;;;;;5071375;28;20015;-82
2023/05/29 07:39:25;;;;;;;;;;;;;;;;;;5079419;28;19925;-80
2023/05/29 07:41:52;;;;;;;;;;;;;;;;;;5064017;28;19936;-79
2023/05/29 07:44:19;;;;;;;;;;;;;;;;;;5067873;28;19924;-79
2023/05/29 07:46:47;;;;;;;;;;;;;;;;;;5043644;28;20034;-78
2023/05/29 07:49:14;;;;;;;;;;;;;;;;;;5071753;28;19925;-77
2023/05/29 07:51:41;;;;;;;;;;;;;;;;;;5080172;28;20304;-77
2023/05/29 07:54:08;;;;;;;;;;;;;;;;;;5066394;28;19925;-79
2023/05/29 07:56:35;;;;;;;;;;;;;;;;;;5066995;28;19970;-79
2023/05/29 07:59:03;;;;;;;;;;;;;;;;;;5059565;28;19937;-75
2023/05/29 08:01:30;;;;;;;;;;;;;;;;;;5059880;28;19932;-80
2023/05/29 08:03:56;;;;;;;;;;;;;;;;;;5059627;28;20019;-77
2023/05/29 08:06:23;;;;;;;;;;;;;;;;;;5078061;28;20007;-82
2023/05/29 08:08:51;;;;;;;;;;;;;;;;;;5058763;28;19990;-80
2023/05/29 08:11:18;;;;;;;;;;;;;;;;;;5066854;28;19932;-79
2023/05/29 08:13:45;;;;;;;;;;;;;;;;;;5063811;28;20011;-81
2023/05/29 08:16:14;;;;;;;;;;;;;;;;;;5072090;28;20017;-80
2023/05/29 08:18:41;;;;;;;;;;;;;;;;;;5067003;28;19925;-79
2023/05/29 08:21:09;;;;;;;;;;;;;;;;;;5068720;28;19930;-77
2023/05/29 08:23:36;;;;;;;;;;;;;;;;;;5086351;28;19959;-80
2023/05/29 08:26:03;;;;;;;;;;;;;;;;;;5073192;28;19935;-79
2023/05/29 08:28:30;;;;;;;;;;;;;;;;;;5062894;28;19924;-82
2023/05/29 08:30:57;;;;;;;;;;;;;;;;;;5072625;28;19978;-82
2023/05/29 08:33:24;;;;;;;;;;;;;;;;;;5072418;28;20011;-80
2023/05/29 08:35:51;;;;;;;;;;;;;;;;;;5079701;28;20019;-79
2023/05/29 08:38:20;;;;;;;;;;;;;;;;;;5060278;28;19964;-79
2023/05/29 08:40:47;;;;;;;;;;;;;;;;;;5085643;28;19968;-76
2023/05/29 08:43:14;;;;;;;;;;;;;;;;;;5078486;28;20383;-78
2023/05/29 08:45:41;;;;;;;;;;;;;;;;;;5056813;28;20370;-78
2023/05/29 08:48:08;;;;;;;;;;;;;;;;;;5072335;28;19963;-78
2023/05/29 08:50:35;;;;;;;;;;;;;;;;;;5085541;28;20464;-75
2023/05/29 08:53:05;;;;;;;;;;;;;;;;;;5069353;28;19995;-77
2023/05/29 08:55:32;;;;;;;;;;;;;;;;;;5060572;28;19925;-77
2023/05/29 08:57:59;;;;;;;;;;;;;;;;;;5066775;28;20016;-77
2023/05/29 09:00:28;;;;;;;;;;;;;;;;;;5058881;28;19929;-78
2023/05/29 09:02:56;;;;;;;;;;;;;;;;;;5069830;28;20015;-76
2023/05/29 09:05:23;;;;;;;;;;;;;;;;;;5068903;28;20391;-78
2023/05/29 09:07:50;;;;;;;;;;;;;;;;;;5071582;28;20016;-79
2023/05/29 09:10:18;;;;;;;;;;;;;;;;;;5066755;28;20471;-81
2023/05/29 09:12:45;;;;;;;;;;;;;;;;;;5066405;28;19931;-82
2023/05/29 09:15:12;;;;;;;;;;;;;;;;;;5069009;28;19994;-81
2023/05/29 09:17:39;;;;;;;;;;;;;;;;;;5073428;28;20022;-82
2023/05/29 09:20:07;;;;;;;;;;;;;;;;;;5064266;28;19924;-81
2023/05/29 09:22:34;;;;;;;;;;;;;;;;;;5067399;28;19944;-82
2023/05/29 09:25:01;;;;;;;;;;;;;;;;;;5063403;28;19928;-82
2023/05/29 09:27:28;;;;;;;;;;;;;;;;;;5070168;28;19990;-82
2023/05/29 09:29:55;;;;;;;;;;;;;;;;;;5064374;28;20374;-82
2023/05/29 09:32:22;;;;;;;;;;;;;;;;;;5059649;28;19929;-82
2023/05/29 09:34:49;;;;;;;;;;;;;;;;;;5063024;28;20016;-80
2023/05/29 09:37:21;;;;;;;;;;;;;;;;;;5071703;28;19978;-82
2023/05/29 09:39:48;;;;;;;;;;;;;;;;;;5087913;28;19924;-82
2023/05/29 09:42:15;;;;;;;;;;;;;;;;;;5074261;28;20015;-81
2023/05/29 09:44:42;;;;;;;;;;;;;;;;;;5066934;28;19976;-80
2023/05/29 09:47:10;;;;;;;;;;;;;;;;;;5064993;28;20472;-80
2023/05/29 09:49:38;;;;;;;;;;;;;;;;;;5071367;28;19925;-79
2023/05/29 09:52:07;;;;;;;;;;;;;;;;;;5069986;28;19928;-79
2023/05/29 09:54:34;;;;;;;;;;;;;;;;;;5065869;28;19924;-79
2023/05/29 09:57:03;;;;;;;;;;;;;;;;;;5063297;28;20473;-82
2023/05/29 09:59:30;;;;;;;;;;;;;;;;;;5086547;28;19924;-80
2023/05/29 10:01:57;;;;;;;;;;;;;;;;;;5074760;28;20023;-83
2023/05/29 10:04:25;;;;;;;;;;;;;;;;;;5070325;28;20019;-81
2023/05/29 10:06:52;;;;;;;;;;;;;;;;;;5071006;28;19928;-82
2023/05/29 10:09:21;;;;;;;;;;;;;;;;;;5072389;28;20374;-82
2023/05/29 10:11:48;;;;;;;;;;;;;;;;;;5066131;28;19932;-81
2023/05/29 10:14:15;;;;;;;;;;;;;;;;;;5075479;28;19924;-81
2023/05/29 10:16:42;;;;;;;;;;;;;;;;;;5072105;28;19947;-78
2023/05/29 10:19:09;;;;;;;;;;;;;;;;;;5073497;28;19924;-78
2023/05/29 10:21:36;;;;;;;;;;;;;;;;;;5067400;28;19960;-79
2023/05/29 10:24:03;;;;;;;;;;;;;;;;;;5070243;28;20445;-78
2023/05/29 10:26:31;;;;;;;;;;;;;;;;;;5064415;28;19925;-79
2023/05/29 10:28:58;;;;;;;;;;;;;;;;;;5063049;28;19935;-79
2023/05/29 10:31:24;;;;;;;;;;;;;;;;;;5061358;28;20276;-78
2023/05/29 10:33:51;;;;;;;;;;;;;;;;;;5069557;28;19956;-79
2023/05/29 10:36:21;;;;;;;;;;;;;;;;;;5071282;28;20012;-79
2023/05/29 10:38:48;;;;;;;;;;;;;;;;;;5068923;28;19928;-80
2023/05/29 10:41:15;;;;;;;;;;;;;;;;;;5068536;28;20016;-80
2023/05/29 10:43:44;;;;;;;;;;;;;;;;;;5069552;28;20015;-75
2023/05/29 10:46:11;;;;;;;;;;;;;;;;;;5061632;28;19928;-73
2023/05/29 10:48:38;;;;;;;;;;;;;;;;;;5073237;28;20333;-79
2023/05/29 10:51:05;;;;;;;;;;;;;;;;;;5074030;28;19943;-75
2023/05/29 10:53:32;;;;;;;;;;;;;;;;;;5079273;28;20337;-77
2023/05/29 10:55:59;;;;;;;;;;;;;;;;;;5073446;28;20294;-78
2023/05/29 10:58:26;;;;;;;;;;;;;;;;;;5071277;28;19931;-77
2023/05/29 11:00:54;;;;;;;;;;;;;;;;;;5070055;28;19931;-75
2023/05/29 11:03:21;;;;;;;;;;;;;;;;;;5072971;28;19983;-81
2023/05/29 11:05:48;;;;;;;;;;;;;;;;;;5054820;28;20380;-81
2023/05/29 11:08:15;;;;;;;;;;;;;;;;;;5054641;28;20419;-81
2023/05/29 11:10:42;;;;;;;;;;;;;;;;;;5072476;28;20346;-81
2023/05/29 11:13:09;;;;;;;;;;;;;;;;;;5070111;28;19928;-80
2023/05/29 11:15:36;;;;;;;;;;;;;;;;;;5073588;28;19924;-82
2023/05/29 11:18:03;;;;;;;;;;;;;;;;;;5081525;28;19989;-80
2023/05/29 11:20:30;;;;;;;;;;;;;;;;;;5087268;28;20007;-81
2023/05/29 11:22:57;;;;;;;;;;;;;;;;;;5079857;28;19925;-81
2023/05/29 11:25:24;;;;;;;;;;;;;;;;;;5075968;28;19976;-81
2023/05/29 11:27:52;;;;;;;;;;;;;;;;;;5072879;28;19925;-76
2023/05/29 11:30:19;;;;;;;;;;;;;;;;;;5062441;28;20390;-77
2023/05/29 11:32:45;;;;;;;;;;;;;;;;;;5063072;28;19981;-76
2023/05/29 11:35:13;;;;;;;;;;;;;;;;;;5064609;28;20019;-76
2023/05/29 11:37:42;;;;;;;;;;;;;;;;;;5061143;28;19928;-76
2023/05/29 11:40:09;;;;;;;;;;;;;;;;;;5066649;28;19971;-75
2023/05/29 11:42:36;;;;;;;;;;;;;;;;;;5068245;28;20023;-76
2023/05/29 11:45:03;;;;;;;;;;;;;;;;;;5061434;28;20019;-75
2023/05/29 11:47:30;;;;;;;;;;;;;;;;;;5062142;28;20035;-76
2023/05/29 11:49:57;;;;;;;;;;;;;;;;;;5068621;28;20027;-76
2023/05/29 11:52:24;;;;;;;;;;;;;;;;;;5066009;28;20115;-77
2023/05/29 11:54:53;;;;;;;;;;;;;;;;;;5060739;28;19936;-77
2023/05/29 11:57:20;;;;;;;;;;;;;;;;;;5071897;28;20274;-76
2023/05/29 11:59:47;;;;;;;;;;;;;;;;;;5064169;28;20379;-76
2023/05/29 12:02:14;;;;;;;;;;;;;;;;;;5067262;28;19966;-76
2023/05/29 12:04:41;;;;;;;;;;;;;;;;;;5072949;28;20022;-77
2023/05/29 12:07:08;;;;;;;;;;;;;;;;;;5061490;28;20032;-77
2023/05/29 12:09:35;;;;;;;;;;;;;;;;;;5066584;28;20009;-77
2023/05/29 12:12:02;;;;;;;;;;;;;;;;;;5069837;28;19928;-77
2023/05/29 12:14:29;;;;;;;;;;;;;;;;;;5064582;28;19932;-77
2023/05/29 12:16:56;;;;;;;;;;;;;;;;;;5059675;28;19925;-77
2023/05/29 12:19:23;;;;;;;;;;;;;;;;;;5058702;28;19924;-77
2023/05/29 12:21:50;;;;;;;;;;;;;;;;;;5074866;28;19931;-77
2023/05/29 12:24:17;;;;;;;;;;;;;;;;;;5070229;28;20000;-77
2023/05/29 12:26:44;;;;;;;;;;;;;;;;;;5067187;28;20411;-77
2023/05/29 12:29:11;;;;;;;;;;;;;;;;;;5070097;28;19925;-77
2023/05/29 12:31:39;;;;;;;;;;;;;;;;;;5069855;28;19924;-77
2023/05/29 12:34:06;;;;;;;;;;;;;;;;;;5066986;28;20383;-77
2023/05/29 12:36:33;;;;;;;;;;;;;;;;;;5068983;28;20058;-77
2023/05/29 12:39:00;;;;;;;;;;;;;;;;;;5074211;28;20365;-77
2023/05/29 12:41:28;;;;;;;;;;;;;;;;;;5076084;28;19928;-76
2023/05/29 12:43:56;;;;;;;;;;;;;;;;;;5066552;28;19935;-78
2023/05/29 12:46:23;;;;;;;;;;;;;;;;;;5075293;28;20031;-77
2023/05/29 12:48:50;;;;;;;;;;;;;;;;;;5076461;28;20011;-76
2023/05/29 12:51:17;;;;;;;;;;;;;;;;;;5065171;28;19999;-80
2023/05/29 12:53:44;;;;;;;;;;;;;;;;;;5069171;28;20301;-80
2023/05/29 12:56:11;;;;;;;;;;;;;;;;;;5074790;28;20337;-80
2023/05/29 12:58:38;;;;;;;;;;;;;;;;;;5077853;28;19940;-81
2023/05/29 13:01:05;;;;;;;;;;;;;;;;;;5078571;28;20287;-80
2023/05/29 13:03:33;;;;;;;;;;;;;;;;;;5062115;28;20000;-81
2023/05/29 13:06:00;;;;;;;;;;;;;;;;;;5073379;28;19936;-83
2023/05/29 13:08:27;;;;;;;;;;;;;;;;;;5068439;28;20435;-84
2023/05/29 13:10:54;;;;;;;;;;;;;;;;;;5074122;28;20369;-82
2023/05/29 13:13:22;;;;;;;;;;;;;;;;;;5080045;28;20015;-83
2023/05/29 13:15:49;;;;;;;;;;;;;;;;;;5082474;28;19924;-83
2023/05/29 13:18:16;;;;;;;;;;;;;;;;;;5079862;28;20011;-82
2023/05/29 13:20:43;;;;;;;;;;;;;;;;;;5081177;28;19964;-83
2023/05/29 13:23:09;;;;;;;;;;;;;;;;;;5075458;28;20000;-82
2023/05/29 13:25:36;;;;;;;;;;;;;;;;;;5085735;28;19963;-82
2023/05/29 13:28:03;;;;;;;;;;;;;;;;;;5081984;28;20011;-81
2023/05/29 13:30:30;;;;;;;;;;;;;;;;;;5076293;28;20018;-83
2023/05/29 13:32:58;;;;;;;;;;;;;;;;;;5078100;28;19993;-83
2023/05/29 13:35:25;;;;;;;;;;;;;;;;;;5088201;28;19927;-85
2023/05/29 13:37:52;;;;;;;;;;;;;;;;;;5080373;28;20437;-80
2023/05/29 13:40:19;;;;;;;;;;;;;;;;;;5074695;28;19999;-80
2023/05/29 13:42:46;;;;;;;;;;;;;;;;;;5074884;28;19978;-80
2023/05/29 13:45:14;;;;;;;;;;;;;;;;;;5073858;28;19952;-79
2023/05/29 13:47:41;;;;;;;;;;;;;;;;;;5077027;28;19979;-79
2023/05/29 13:50:08;;;;;;;;;;;;;;;;;;5074080;28;19968;-78
2023/05/29 13:52:35;;;;;;;;;;;;;;;;;;5064468;28;20383;-79
2023/05/29 13:55:06;;;;;;;;;;;;;;;;;;5074775;28;20408;-79
2023/05/29 13:57:33;;;;;;;;;;;;;;;;;;5072721;28;20002;-78
2023/05/29 14:00:00;;;;;;;;;;;;;;;;;;5068319;28;19971;-78
2023/05/29 14:02:27;;;;;;;;;;;;;;;;;;5063752;28;19929;-79
2023/05/29 14:04:54;;;;;;;;;;;;;;;;;;5074843;28;19991;-81
2023/05/29 14:07:21;;;;;;;;;;;;;;;;;;5074122;28;19979;-82
2023/05/29 14:09:48;;;;;;;;;;;;;;;;;;5079007;28;20011;-81
2023/05/29 14:12:15;;;;;;;;;;;;;;;;;;5071930;28;20019;-81
2023/05/29 14:14:42;;;;;;;;;;;;;;;;;;5072407;28;19928;-83
2023/05/29 14:17:09;;;;;;;;;;;;;;;;;;5072197;28;19932;-84
2023/05/29 14:19:36;;;;;;;;;;;;;;;;;;5077677;28;19928;-76
2023/05/29 14:22:03;;;;;;;;;;;;;;;;;;5067895;28;20012;-76
2023/05/29 14:24:30;;;;;;;;;;;;;;;;;;5072270;28;19924;-78
2023/05/29 14:26:57;;;;;;;;;;;;;;;;;;5069037;28;19924;-78
2023/05/29 14:29:24;;;;;;;;;;;;;;;;;;5067356;28;19983;-74
2023/05/29 14:31:51;;;;;;;;;;;;;;;;;;5071007;28;19990;-78
2023/05/29 14:34:19;;;;;;;;;;;;;;;;;;5071756;28;19972;-79
2023/05/29 14:36:46;;;;;;;;;;;;;;;;;;5060178;28;19956;-83
2023/05/29 14:39:13;;;;;;;;;;;;;;;;;;5069146;28;20349;-85
2023/05/29 14:41:40;;;;;;;;;;;;;;;;;;5077445;28;20294;-84
2023/05/29 14:44:07;;;;;;;;;;;;;;;;;;5077083;28;19978;-84
2023/05/29 14:46:34;;;;;;;;;;;;;;;;;;5076934;28;19986;-85
2023/05/29 14:49:01;;;;;;;;;;;;;;;;;;5073905;28;19924;-84
2023/05/29 14:51:28;;;;;;;;;;;;;;;;;;5072914;28;19924;-82
2023/05/29 14:53:55;;;;;;;;;;;;;;;;;;5076008;28;20027;-84
2023/05/29 14:56:22;;;;;;;;;;;;;;;;;;5067389;28;19925;-83
2023/05/29 14:58:49;;;;;;;;;;;;;;;;;;5067420;28;20294;-82
2023/05/29 15:01:17;;;;;;;;;;;;;;;;;;5069790;28;19928;-82
2023/05/29 15:03:44;;;;;;;;;;;;;;;;;;5071105;28;20054;-83
2023/05/29 15:06:12;;;;;;;;;;;;;;;;;;5069326;28;20003;-83
2023/05/29 15:08:39;;;;;;;;;;;;;;;;;;5072290;28;20652;-83
2023/05/29 15:11:07;;;;;;;;;;;;;;;;;;5068688;28;19929;-84
2023/05/29 15:13:34;;;;;;;;;;;;;;;;;;5068802;28;19970;-84
2023/05/29 15:16:02;;;;;;;;;;;;;;;;;;5074458;28;19931;-82
2023/05/29 15:18:29;;;;;;;;;;;;;;;;;;5061477;28;19925;-81
2023/05/29 15:20:57;;;;;;;;;;;;;;;;;;5072623;28;19969;-81
2023/05/29 15:23:24;;;;;;;;;;;;;;;;;;5071651;28;19978;-82
2023/05/29 15:25:51;;;;;;;;;;;;;;;;;;5071879;28;19924;-82
2023/05/29 15:28:18;;;;;;;;;;;;;;;;;;5069595;28;19977;-82
2023/05/29 15:30:45;;;;;;;;;;;;;;;;;;5063868;28;20011;-82
2023/05/29 15:33:12;;;;;;;;;;;;;;;;;;5070410;28;19932;-81
2023/05/29 15:35:40;;;;;;;;;;;;;;;;;;5055087;28;19928;-82
2023/05/29 15:38:07;;;;;;;;;;;;;;;;;;5070187;28;19924;-83
2023/05/29 15:40:34;;;;;;;;;;;;;;;;;;5071650;28;19975;-82
2023/05/29 15:43:01;;;;;;;;;;;;;;;;;;5072228;28;19977;-83
2023/05/29 15:45:28;;;;;;;;;;;;;;;;;;5066069;28;19968;-80
2023/05/29 15:47:55;;;;;;;;;;;;;;;;;;5066473;28;19975;-79
2023/05/29 15:50:22;;;;;;;;;;;;;;;;;;5066990;28;19964;-81
2023/05/29 15:52:49;;;;;;;;;;;;;;;;;;5070536;28;20363;-80
2023/05/29 15:55:16;;;;;;;;;;;;;;;;;;5070265;28;19978;-80
2023/05/29 15:57:43;;;;;;;;;;;;;;;;;;5075174;28;19978;-81
2023/05/29 16:00:11;;;;;;;;;;;;;;;;;;5073273;28;20015;-81
2023/05/29 16:02:38;;;;;;;;;;;;;;;;;;5072723;28;19951;-81
2023/05/29 16:05:05;;;;;;;;;;;;;;;;;;5069300;28;19929;-81
2023/05/29 16:07:32;;;;;;;;;;;;;;;;;;5069610;28;20299;-80
2023/05/29 16:09:59;;;;;;;;;;;;;;;;;;5068004;28;19967;-79
2023/05/29 16:12:26;;;;;;;;;;;;;;;;;;5074147;28;19925;-80
2023/05/29 16:14:53;;;;;;;;;;;;;;;;;;5080873;28;20011;-80
2023/05/29 16:17:20;;;;;;;;;;;;;;;;;;5071596;28;20019;-81
2023/05/29 16:19:47;;;;;;;;;;;;;;;;;;5072413;28;20019;-80
2023/05/29 16:22:14;;;;;;;;;;;;;;;;;;5066326;28;19932;-80
2023/05/29 16:24:41;;;;;;;;;;;;;;;;;;5072677;28;20011;-80
2023/05/29 16:27:08;;;;;;;;;;;;;;;;;;5080083;28;19924;-81
2023/05/29 16:29:35;;;;;;;;;;;;;;;;;;5071498;28;19924;-80
2023/05/29 16:32:02;;;;;;;;;;;;;;;;;;5073180;28;20355;-80
2023/05/29 16:34:30;;;;;;;;;;;;;;;;;;5070570;28;20044;-79
2023/05/29 16:36:57;;;;;;;;;;;;;;;;;;5070154;28;19924;-81
2023/05/29 16:39:27;;;;;;;;;;;;;;;;;;5072686;28;20047;-79
2023/05/29 16:41:54;;;;;;;;;;;;;;;;;;5070514;28;19924;-79
2023/05/29 16:44:20;;;;;;;;;;;;;;;;;;5064268;28;20008;-77